aviador You're here:

KALO Decoded Metar

WATERLOO in IA, USA
Report Time2018-02-17 23:11:00
UTC Time2018-02-17 23:42:04
Flight Rules vfr VFR
Wind270° at 07 kt
W.Decomp.*RWY 24: 6.2 kt HW 3.2 kt RCW
RWY 30: 5.9 kt HW 3.8 kt LCW
RWY 18: 0.4 kt HW 7.0 kt RCW
W.Rank270° ranks 19
Current wind is below 270° avg. (8.6)
Visibility9999 m
Phenomena:N/A
Clouds:Scattered 019 Hf
Expected CloudBase > 1,200 ft AGL from Temp-Dew spread
CeilingNone
Temp-1°C (ISA -14)
Dew Point-4°C (80% RH)
AAT-6.0°C
QNH1017 hPa
Density Alt-951 ft
Elevation866 ft
Report Wrong Elevation
Raw Report
KALO 172311Z 27007KT 10SM SCT019 M01/M04 A3004 RMK AO2
T10111039=

Extra information for KALO:More info

Metar Taf Metar & Taf Last 4 Metars F.Rules Stats Wind Profile Meteogram Temp Stats Airport Information Weather charts Add Link Nearby VenuesMetar ALERT Operation Metar Decoded Social comments

AIRNAV info for KALO